createdAt,value
2023-01-19T00:00:21.287Z,34.92
2023-01-19T00:02:29.064Z,34.70
2023-01-19T00:04:17.135Z,35.38
2023-01-19T00:06:06.297Z,36.92
2023-01-19T00:07:53.996Z,36.67
2023-01-19T00:15:05.883Z,36.28
2023-01-19T00:16:53.435Z,39.20
2023-01-19T00:18:41.147Z,40.47
2023-01-19T00:22:18.115Z,38.20
2023-01-19T00:24:06.185Z,41.20
2023-01-19T00:25:54.017Z,42.63
2023-01-19T00:27:41.434Z,41.75
2023-01-19T00:29:30.981Z,40.97
2023-01-19T00:31:22.027Z,41.25
2023-01-19T00:33:10.282Z,41.75
2023-01-19T00:34:57.532Z,42.17
2023-01-19T00:36:45.067Z,43.22
2023-01-19T00:38:32.344Z,43.58
2023-01-19T00:40:19.796Z,42.90
2023-01-19T00:42:27.073Z,44.15
2023-01-19T00:44:14.570Z,43.15
2023-01-19T00:46:02.204Z,42.03
2023-01-19T00:47:57.121Z,44.55
2023-01-19T00:49:44.810Z,42.63
2023-01-19T00:51:33.136Z,44.28
2023-01-19T00:53:20.593Z,44.58
2023-01-19T00:55:09.638Z,44.28
2023-01-19T00:56:57.277Z,45.75
2023-01-19T00:58:45.258Z,47.70
2023-01-19T01:04:12.250Z,42.33
2023-01-19T01:05:59.739Z,42.60
2023-01-19T01:07:49.594Z,44.40
2023-01-19T01:09:37.047Z,45.70
2023-01-19T01:11:24.356Z,43.45
2023-01-19T01:13:20.313Z,41.38
2023-01-19T01:15:12.030Z,41.45
2023-01-19T01:17:00.682Z,40.88
2023-01-19T01:18:48.485Z,42.03
2023-01-19T01:20:37.555Z,48.22
2023-01-19T01:22:24.801Z,57.10
2023-01-19T01:24:12.729Z,51.72
2023-01-19T01:26:00.444Z,58.50
2023-01-19T01:27:47.798Z,58.50
2023-01-19T01:29:35.517Z,49.05
2023-01-19T01:31:22.871Z,47.13
2023-01-19T01:33:11.814Z,48.38
2023-01-19T01:34:59.606Z,44.33
2023-01-19T01:36:46.902Z,42.33
2023-01-19T01:38:34.226Z,43.13
2023-01-19T01:40:21.883Z,49.38
2023-01-19T01:42:17.826Z,51.72
2023-01-19T01:44:49.701Z,50.03
2023-01-19T01:46:37.478Z,43.97
2023-01-19T01:48:30.418Z,41.25
2023-01-19T01:50:24.256Z,41.95
2023-01-19T01:52:14.149Z,42.92
2023-01-19T01:54:08.097Z,38.08
2023-01-19T01:55:55.839Z,39.47
2023-01-19T01:57:48.114Z,40.25
2023-01-19T01:59:40.543Z,44.20
2023-01-19T02:01:46.956Z,48.28
2023-01-19T02:03:34.893Z,54.67
2023-01-19T02:05:28.970Z,58.28
2023-01-19T02:07:44.252Z,44.20
2023-01-19T02:09:54.753Z,37.97
2023-01-19T02:12:01.303Z,37.28
2023-01-19T02:13:49.274Z,38.22
2023-01-19T02:15:36.638Z,37.83
2023-01-19T02:17:24.146Z,38.42
2023-01-19T02:19:24.631Z,38.45
2023-01-19T02:21:28.438Z,39.90
2023-01-19T02:23:27.458Z,37.83
2023-01-19T02:25:16.199Z,39.17
2023-01-19T02:27:04.887Z,37.63
2023-01-19T02:28:59.028Z,37.40
2023-01-19T02:30:46.484Z,39.58
2023-01-19T02:32:34.007Z,40.70
2023-01-19T02:34:22.858Z,39.67
2023-01-19T02:36:13.598Z,42.10
2023-01-19T02:38:03.280Z,42.55
2023-01-19T02:39:57.817Z,49.35
2023-01-19T02:41:50.853Z,44.72
2023-01-19T02:43:39.255Z,47.50
2023-01-19T02:45:27.774Z,48.40
2023-01-19T02:47:15.459Z,49.35
2023-01-19T02:49:03.016Z,48.53
2023-01-19T02:50:56.091Z,47.25
2023-01-19T02:52:46.472Z,50.92
2023-01-19T02:55:01.231Z,49.42
2023-01-19T02:57:07.313Z,48.22
2023-01-19T02:59:23.617Z,52.53
2023-01-19T03:01:16.005Z,51.08
2023-01-19T03:03:22.079Z,53.58
2023-01-19T03:05:24.168Z,53.80
2023-01-19T03:07:14.503Z,53.40
2023-01-19T03:09:11.429Z,53.88
2023-01-19T03:11:08.085Z,52.63
2023-01-19T03:13:11.835Z,52.33
2023-01-19T03:15:05.292Z,52.08
2023-01-19T03:16:56.731Z,47.40
2023-01-19T03:18:49.167Z,45.78
2023-01-19T03:20:38.236Z,46.55
2023-01-19T03:22:29.418Z,51.58
2023-01-19T03:24:20.638Z,50.78
2023-01-19T03:26:10.886Z,59.83
2023-01-19T03:27:58.572Z,58.55
2023-01-19T03:29:51.998Z,54.13
2023-01-19T03:31:41.927Z,52.55
2023-01-19T03:33:41.720Z,51.67
2023-01-19T03:35:33.177Z,50.92
2023-01-19T03:37:21.651Z,50.40
2023-01-19T03:39:11.037Z,50.25
2023-01-19T03:41:02.383Z,48.92
2023-01-19T03:42:50.593Z,46.80
2023-01-19T03:44:40.395Z,43.42
2023-01-19T03:46:28.710Z,46.25
2023-01-19T03:48:16.648Z,45.78
2023-01-19T03:50:09.179Z,46.72
2023-01-19T03:51:58.893Z,55.70
2023-01-19T03:53:47.410Z,59.33
2023-01-19T03:55:36.729Z,57.08
2023-01-19T03:57:24.389Z,51.83
2023-01-19T03:59:12.035Z,56.60
2023-01-19T04:00:59.282Z,58.28
2023-01-19T04:02:47.055Z,56.63
2023-01-19T04:04:34.400Z,51.13
2023-01-19T04:06:22.200Z,52.65
2023-01-19T04:08:10.263Z,55.30
2023-01-19T04:09:57.665Z,57.25
2023-01-19T04:11:44.962Z,66.22
2023-01-19T04:13:32.708Z,65.88
2023-01-19T04:15:20.433Z,64.38
2023-01-19T04:17:07.849Z,61.80
2023-01-19T04:18:55.824Z,58.55
2023-01-19T04:20:43.150Z,57.80
2023-01-19T04:22:30.585Z,56.63
2023-01-19T04:24:18.825Z,58.92
2023-01-19T04:27:55.290Z,59.95
2023-01-19T04:29:43.118Z,71.38
2023-01-19T04:31:31.578Z,68.60
2023-01-19T04:33:20.084Z,68.88
2023-01-19T04:35:07.987Z,69.25
2023-01-19T04:36:56.030Z,66.47
2023-01-19T04:38:43.380Z,67.90
2023-01-19T04:40:30.958Z,70.95
2023-01-19T04:42:18.556Z,67.13
2023-01-19T04:44:06.541Z,70.78
2023-01-19T04:45:54.381Z,75.05
2023-01-19T04:47:42.778Z,70.63
2023-01-19T04:49:30.266Z,63.00
2023-01-19T04:51:17.761Z,65.28
2023-01-19T04:53:05.160Z,60.45
2023-01-19T04:54:52.934Z,55.67
2023-01-19T04:56:41.100Z,55.20
2023-01-19T04:58:28.342Z,54.88
2023-01-19T05:00:16.306Z,50.63
2023-01-19T05:02:04.009Z,51.08
2023-01-19T05:03:51.265Z,54.38
2023-01-19T05:05:38.476Z,52.95
2023-01-19T05:07:26.069Z,62.70
2023-01-19T05:09:15.318Z,87.60
2023-01-19T05:11:02.776Z,87.53
2023-01-19T05:12:51.379Z,79.00
2023-01-19T05:14:38.842Z,64.53
2023-01-19T05:16:26.232Z,54.35
2023-01-19T05:18:14.045Z,59.20
2023-01-19T05:20:01.415Z,52.67
2023-01-19T05:21:48.866Z,52.25
2023-01-19T05:23:36.730Z,50.60
2023-01-19T05:25:24.293Z,52.10
2023-01-19T05:27:11.873Z,51.72
2023-01-19T05:28:59.533Z,50.13
2023-01-19T05:30:47.152Z,52.20
2023-01-19T05:32:34.656Z,51.67
2023-01-19T05:34:22.253Z,51.33
2023-01-19T05:36:10.002Z,50.58
2023-01-19T05:37:57.439Z,51.17
2023-01-19T05:39:45.563Z,50.72
2023-01-19T05:41:33.054Z,36.67
2023-01-19T05:43:21.087Z,54.45
2023-01-19T05:45:09.684Z,55.63
2023-01-19T05:46:58.597Z,61.05
2023-01-19T05:48:46.785Z,61.72
2023-01-19T05:50:35.618Z,66.60
2023-01-19T05:52:26.173Z,67.40
2023-01-19T05:54:18.228Z,65.97
2023-01-19T05:56:10.951Z,69.85
2023-01-19T05:57:58.831Z,67.50
2023-01-19T05:59:46.648Z,69.13
2023-01-19T06:01:39.826Z,72.28
2023-01-19T06:03:27.494Z,67.75
2023-01-19T06:05:15.606Z,65.15
2023-01-19T06:07:03.565Z,62.13
2023-01-19T06:08:51.076Z,58.75
2023-01-19T06:10:38.253Z,59.13
2023-01-19T06:12:25.963Z,60.50
2023-01-19T06:14:13.754Z,61.63
2023-01-19T06:16:02.721Z,61.45
2023-01-19T06:17:50.235Z,64.63
2023-01-19T06:19:37.530Z,67.53
2023-01-19T06:21:25.307Z,67.43
2023-01-19T06:23:12.873Z,65.20
2023-01-19T06:25:00.150Z,65.03
2023-01-19T06:26:47.453Z,63.90
2023-01-19T06:28:35.145Z,62.10
2023-01-19T06:30:22.593Z,61.35
2023-01-19T06:32:09.848Z,61.75
2023-01-19T06:33:57.389Z,62.10
2023-01-19T06:35:46.243Z,63.33
2023-01-19T06:37:33.871Z,60.97
2023-01-19T06:41:08.652Z,57.30
2023-01-19T06:42:55.734Z,57.85
2023-01-19T06:44:47.497Z,59.40
2023-01-19T06:46:35.911Z,61.70
2023-01-19T06:48:24.175Z,68.32
2023-01-19T06:50:11.814Z,63.45
2023-01-19T06:51:59.105Z,60.45
2023-01-19T06:53:46.328Z,57.63
2023-01-19T06:55:36.561Z,57.00
2023-01-19T06:57:25.945Z,54.75
2023-01-19T06:59:13.498Z,55.88
2023-01-19T07:01:03.431Z,56.85
2023-01-19T07:02:50.861Z,53.30
2023-01-19T07:04:38.354Z,57.97
2023-01-19T07:06:26.213Z,55.83
2023-01-19T07:08:15.520Z,45.50
2023-01-19T07:10:02.943Z,48.45
2023-01-19T07:11:54.367Z,50.35
2023-01-19T07:13:44.804Z,50.95
2023-01-19T07:15:32.285Z,50.67
2023-01-19T07:17:20.341Z,50.17
2023-01-19T07:19:10.458Z,58.88
2023-01-19T07:20:58.839Z,51.50
2023-01-19T07:22:46.736Z,51.92
2023-01-19T07:24:35.110Z,52.33
2023-01-19T07:26:25.044Z,52.58
2023-01-19T07:28:15.768Z,53.05
2023-01-19T07:30:04.687Z,56.97
2023-01-19T07:31:54.971Z,56.03
2023-01-19T07:33:42.908Z,53.70
2023-01-19T07:35:33.819Z,52.85
2023-01-19T07:37:21.882Z,56.50
2023-01-19T07:39:10.172Z,57.13
2023-01-19T07:41:01.595Z,55.65
2023-01-19T07:42:50.575Z,52.10
2023-01-19T07:44:38.266Z,53.63
2023-01-19T07:46:28.281Z,55.45
2023-01-19T07:48:15.726Z,56.33
2023-01-19T07:50:03.613Z,54.35
2023-01-19T07:51:50.861Z,53.90
2023-01-19T07:53:39.851Z,53.92
2023-01-19T07:55:27.936Z,47.05
2023-01-19T07:59:02.836Z,42.08
2023-01-19T08:02:41.336Z,44.53
2023-01-19T08:04:29.782Z,42.70
2023-01-19T08:06:22.299Z,44.30
2023-01-19T08:08:11.622Z,45.97
2023-01-19T08:09:59.197Z,45.42
2023-01-19T08:11:47.481Z,51.00
2023-01-19T08:13:34.837Z,46.53
2023-01-19T08:15:24.925Z,49.65
2023-01-19T08:17:14.082Z,55.58
2023-01-19T08:19:01.527Z,64.28
2023-01-19T08:20:49.102Z,55.13
2023-01-19T08:26:30.015Z,60.33
2023-01-19T08:28:18.229Z,53.17
2023-01-19T08:30:06.627Z,75.40
2023-01-19T08:31:55.725Z,75.93
2023-01-19T08:33:44.251Z,62.65
2023-01-19T08:37:19.995Z,57.53
2023-01-19T08:39:07.747Z,55.60
2023-01-19T08:40:55.107Z,51.17
2023-01-19T08:42:42.716Z,52.20
2023-01-19T08:44:30.860Z,50.22
2023-01-19T08:46:21.538Z,56.00
2023-01-19T08:48:10.004Z,55.72
2023-01-19T08:49:57.603Z,65.28
2023-01-19T08:51:47.025Z,71.97
2023-01-19T08:53:34.926Z,65.53
2023-01-19T08:55:22.793Z,64.50
2023-01-19T08:57:12.140Z,76.38
2023-01-19T09:01:10.566Z,70.25
2023-01-19T09:03:00.902Z,63.58
2023-01-19T09:04:49.711Z,64.95
2023-01-19T09:06:44.752Z,67.75
2023-01-19T09:08:33.431Z,52.03
2023-01-19T09:12:08.784Z,44.40
2023-01-19T09:13:56.414Z,49.47
2023-01-19T09:15:44.658Z,44.78
2023-01-19T09:17:32.201Z,46.13
2023-01-19T09:19:19.818Z,39.00
2023-01-19T09:21:08.391Z,40.05
2023-01-19T09:22:59.931Z,39.13
2023-01-19T09:24:47.901Z,32.45
2023-01-19T09:26:36.683Z,38.97
2023-01-19T09:28:26.285Z,41.13
2023-01-19T09:30:14.872Z,36.22
2023-01-19T09:32:02.528Z,34.45
2023-01-19T09:35:40.350Z,30.13
2023-01-19T09:37:28.296Z,36.90
2023-01-19T09:39:16.312Z,29.27
2023-01-19T09:41:04.935Z,27.15
2023-01-19T09:42:57.114Z,29.98
2023-01-19T09:44:46.161Z,33.95
2023-01-19T09:46:43.263Z,32.00
2023-01-19T09:48:42.574Z,27.25
2023-01-19T09:50:38.318Z,30.17
2023-01-19T09:52:26.121Z,28.98
2023-01-19T09:54:19.883Z,29.60
2023-01-19T09:56:13.976Z,35.15
2023-01-19T09:58:02.200Z,32.88
2023-01-19T09:59:51.912Z,36.00
2023-01-19T10:02:01.287Z,33.13
2023-01-19T10:03:53.612Z,32.83
2023-01-19T10:05:53.020Z,38.60
2023-01-19T10:07:44.371Z,43.22
2023-01-19T10:10:01.053Z,42.28
2023-01-19T10:12:23.478Z,29.23
2023-01-19T10:14:30.925Z,41.95
2023-01-19T10:16:57.571Z,34.08
2023-01-19T10:18:48.056Z,34.22
2023-01-19T10:20:41.726Z,33.38
2023-01-19T10:22:29.491Z,32.58
2023-01-19T10:26:37.758Z,29.30
2023-01-19T10:28:27.382Z,30.08
2023-01-19T10:30:25.223Z,29.48
2023-01-19T10:32:23.305Z,27.90
2023-01-19T10:34:23.003Z,27.70
2023-01-19T10:36:37.531Z,30.67
2023-01-19T10:38:25.743Z,35.72
2023-01-19T10:40:21.531Z,36.17
2023-01-19T10:42:13.263Z,33.67
2023-01-19T10:44:04.407Z,33.05
2023-01-19T10:45:52.188Z,31.10
2023-01-19T10:47:41.343Z,31.80
2023-01-19T10:49:39.109Z,32.92
2023-01-19T10:51:27.081Z,34.20
2023-01-19T10:53:22.979Z,36.63
2023-01-19T10:55:28.202Z,35.95
2023-01-19T10:57:43.544Z,36.88
2023-01-19T10:59:37.615Z,30.27
2023-01-19T11:01:28.021Z,35.90
2023-01-19T11:03:29.347Z,38.47
2023-01-19T11:05:32.561Z,42.97
2023-01-19T11:07:26.837Z,41.00
2023-01-19T11:09:21.740Z,43.70
2023-01-19T11:11:10.382Z,35.08
2023-01-19T11:13:04.106Z,43.67
2023-01-19T11:14:52.665Z,63.70
2023-01-19T11:16:46.445Z,42.35
2023-01-19T11:18:37.115Z,34.40
2023-01-19T11:21:02.472Z,30.77
2023-01-19T11:23:22.521Z,160.32
2023-01-19T11:25:31.397Z,89.88
2023-01-19T11:27:21.050Z,80.60
2023-01-19T11:29:24.900Z,58.72
2023-01-19T11:31:32.507Z,41.92
2023-01-19T11:33:26.316Z,36.25
2023-01-19T11:35:41.836Z,54.55
2023-01-19T11:37:34.655Z,38.63
2023-01-19T11:39:28.671Z,35.47
2023-01-19T11:41:36.568Z,34.88
2023-01-19T11:43:43.385Z,29.13
2023-01-19T11:45:37.674Z,36.53
2023-01-19T11:47:49.824Z,30.98
2023-01-19T11:49:57.685Z,25.63
2023-01-19T11:52:09.321Z,31.30
2023-01-19T11:54:18.556Z,27.20
2023-01-19T11:56:12.207Z,28.27
2023-01-19T11:58:00.177Z,26.55
2023-01-19T11:59:50.876Z,22.65
2023-01-19T12:01:51.128Z,22.98
2023-01-19T12:04:05.665Z,26.35
2023-01-19T12:06:20.359Z,26.23
2023-01-19T12:08:18.589Z,29.05
2023-01-19T12:10:26.922Z,29.23
2023-01-19T12:12:43.469Z,30.02
2023-01-19T12:14:47.441Z,30.40
2023-01-19T12:16:41.414Z,26.60
2023-01-19T12:18:41.699Z,25.83
2023-01-19T12:20:52.197Z,27.27
2023-01-19T12:22:52.568Z,25.02
2023-01-19T12:24:54.097Z,26.38
2023-01-19T12:26:59.003Z,26.63
2023-01-19T12:28:52.488Z,28.75
2023-01-19T12:30:41.643Z,27.83
2023-01-19T12:32:35.306Z,31.45
2023-01-19T12:34:27.415Z,26.67
2023-01-19T12:36:30.722Z,24.95
2023-01-19T12:38:46.382Z,25.02
2023-01-19T12:40:45.297Z,23.23
2023-01-19T12:44:29.950Z,25.20
2023-01-19T12:46:27.176Z,24.20
2023-01-19T12:50:19.753Z,26.90
2023-01-19T12:52:29.585Z,26.17
2023-01-19T12:54:34.628Z,26.52
2023-01-19T12:56:31.206Z,27.17
2023-01-19T12:58:27.755Z,27.05
2023-01-19T13:00:24.954Z,28.67
2023-01-19T13:02:21.682Z,31.13
2023-01-19T13:04:31.822Z,32.20
2023-01-19T13:06:19.703Z,34.28
2023-01-19T13:08:07.440Z,36.38
2023-01-19T13:12:19.728Z,35.30
2023-01-19T13:14:36.251Z,35.58
2023-01-19T13:16:29.151Z,34.40
2023-01-19T13:18:25.959Z,34.08
2023-01-19T13:20:25.121Z,32.80
2023-01-19T13:22:50.203Z,33.35
2023-01-19T13:25:14.689Z,35.17
2023-01-19T13:27:05.232Z,30.05
2023-01-19T13:29:05.891Z,32.28
2023-01-19T13:30:59.836Z,32.35
2023-01-19T13:32:48.530Z,29.95
2023-01-19T13:34:38.986Z,32.00
2023-01-19T13:36:38.064Z,34.10
2023-01-19T13:38:28.352Z,33.88
2023-01-19T13:40:23.364Z,33.90
2023-01-19T13:42:18.706Z,32.97
2023-01-19T13:44:36.386Z,29.15
2023-01-19T13:46:26.487Z,28.45
2023-01-19T13:48:18.668Z,34.38
2023-01-19T13:50:07.195Z,31.80
2023-01-19T13:52:13.057Z,29.67
2023-01-19T13:54:05.763Z,31.60
2023-01-19T13:56:29.196Z,25.95
2023-01-19T13:58:24.169Z,25.10
2023-01-19T14:00:17.584Z,25.65
2023-01-19T14:02:13.531Z,27.13
2023-01-19T14:04:01.893Z,27.08
2023-01-19T14:05:54.302Z,26.70
2023-01-19T14:07:42.214Z,25.90
2023-01-19T14:09:29.835Z,27.23
2023-01-19T14:11:19.442Z,28.08
2023-01-19T14:13:26.895Z,27.52
2023-01-19T14:15:14.642Z,27.38
2023-01-19T14:17:02.280Z,29.65
2023-01-19T14:19:04.834Z,31.80
2023-01-19T14:20:55.111Z,31.17
2023-01-19T14:22:45.547Z,31.77
2023-01-19T14:24:33.579Z,33.60
2023-01-19T14:26:43.825Z,35.80
2023-01-19T14:28:44.144Z,38.47
2023-01-19T14:30:32.913Z,38.92
2023-01-19T14:32:25.441Z,37.53
2023-01-19T14:34:32.081Z,36.20
2023-01-19T14:36:29.751Z,35.67
2023-01-19T14:38:17.175Z,40.42
2023-01-19T14:40:21.787Z,35.17
2023-01-19T14:42:19.160Z,43.20
2023-01-19T14:44:16.055Z,43.47
2023-01-19T14:46:04.527Z,38.85
2023-01-19T14:48:18.211Z,34.97
2023-01-19T14:50:31.698Z,32.85
2023-01-19T14:52:34.364Z,37.28
2023-01-19T14:54:35.989Z,39.63
2023-01-19T14:56:41.554Z,37.22
2023-01-19T14:58:33.446Z,37.28
2023-01-19T15:00:22.287Z,37.15
2023-01-19T15:02:10.040Z,37.70
2023-01-19T15:03:58.880Z,42.17
2023-01-19T15:05:48.189Z,41.47
2023-01-19T15:07:39.163Z,39.08
2023-01-19T15:09:27.663Z,41.25
2023-01-19T15:11:28.855Z,40.85
2023-01-19T15:13:27.399Z,38.55
2023-01-19T15:15:30.182Z,37.47
2023-01-19T15:17:28.821Z,40.60
2023-01-19T15:19:24.353Z,44.38
2023-01-19T15:21:21.358Z,41.13
2023-01-19T15:23:15.081Z,39.80
2023-01-19T15:25:07.071Z,40.38
2023-01-19T15:26:56.858Z,39.30
2023-01-19T15:28:51.475Z,39.60
2023-01-19T15:30:44.760Z,37.17
2023-01-19T15:32:32.130Z,39.72
2023-01-19T15:34:20.076Z,39.80
2023-01-19T15:36:30.455Z,41.05
2023-01-19T15:38:19.354Z,47.42
2023-01-19T15:40:13.770Z,54.42
2023-01-19T15:42:02.852Z,53.15
2023-01-19T15:43:50.913Z,58.42
2023-01-19T15:45:43.919Z,56.47
2023-01-19T15:47:31.594Z,50.85
2023-01-19T15:49:25.643Z,44.75
2023-01-19T15:51:31.104Z,45.78
2023-01-19T15:53:24.287Z,46.72
2023-01-19T15:55:16.022Z,47.40
2023-01-19T15:57:06.510Z,44.80
2023-01-19T15:58:58.358Z,47.53
2023-01-19T16:00:54.635Z,45.80
2023-01-19T16:02:47.480Z,46.17
2023-01-19T16:04:36.243Z,44.30
2023-01-19T16:06:29.828Z,44.13
2023-01-19T16:08:22.332Z,46.38
2023-01-19T16:10:13.705Z,45.20
2023-01-19T16:12:07.932Z,41.85
2023-01-19T16:13:56.708Z,44.67
2023-01-19T16:15:44.660Z,46.45
2023-01-19T16:17:32.830Z,46.40
2023-01-19T16:19:22.919Z,44.83
2023-01-19T16:21:14.491Z,53.25
2023-01-19T16:23:19.342Z,55.97
2023-01-19T16:25:07.953Z,40.17
2023-01-19T16:28:47.113Z,38.55
2023-01-19T16:30:37.184Z,50.25
2023-01-19T16:32:26.650Z,40.90
2023-01-19T16:34:16.106Z,37.33
2023-01-19T16:36:21.196Z,37.75
2023-01-19T16:38:09.671Z,37.75
2023-01-19T16:39:58.062Z,40.20
2023-01-19T16:41:46.540Z,45.08
2023-01-19T16:43:34.723Z,43.63
2023-01-19T16:45:24.866Z,46.08
2023-01-19T16:47:13.232Z,42.80
2023-01-19T16:49:11.426Z,45.40
2023-01-19T16:52:51.106Z,42.53
2023-01-19T16:54:42.906Z,43.47
2023-01-19T16:56:33.477Z,41.38
2023-01-19T16:58:28.572Z,41.08
2023-01-19T17:00:16.690Z,38.60
2023-01-19T17:02:04.590Z,38.45
2023-01-19T17:03:52.501Z,38.20
2023-01-19T17:05:39.979Z,38.88
2023-01-19T17:07:29.278Z,38.90
2023-01-19T17:09:18.299Z,38.60
2023-01-19T17:11:21.146Z,38.50
2023-01-19T17:13:08.868Z,39.88
2023-01-19T17:14:57.134Z,40.95
2023-01-19T17:16:44.977Z,38.58
2023-01-19T17:18:35.056Z,35.80
2023-01-19T17:20:23.397Z,33.45
2023-01-19T17:22:13.446Z,35.35
2023-01-19T17:24:02.170Z,37.83
2023-01-19T17:25:56.174Z,39.58
2023-01-19T17:27:43.526Z,42.00
2023-01-19T17:29:32.052Z,46.38
2023-01-19T17:31:22.812Z,45.20
2023-01-19T17:33:14.025Z,46.72
2023-01-19T17:35:03.786Z,58.25
2023-01-19T17:36:51.720Z,49.90
2023-01-19T17:38:40.881Z,48.13
2023-01-19T17:40:30.977Z,43.53
2023-01-19T17:42:21.653Z,40.10
2023-01-19T17:45:56.989Z,35.28
2023-01-19T17:47:44.441Z,36.38
2023-01-19T17:49:32.019Z,38.15
2023-01-19T17:51:20.726Z,35.42
2023-01-19T17:53:10.198Z,37.80
2023-01-19T17:55:00.831Z,36.53
2023-01-19T17:56:53.448Z,35.40
2023-01-19T17:58:42.156Z,38.70
2023-01-19T18:00:30.055Z,35.85
2023-01-19T18:02:17.921Z,36.65
2023-01-19T18:04:07.025Z,35.55
2023-01-19T18:05:55.344Z,33.83
2023-01-19T18:08:00.290Z,36.33
2023-01-19T18:09:48.083Z,37.10
2023-01-19T18:11:36.351Z,41.85
2023-01-19T18:13:28.047Z,44.03
2023-01-19T18:15:28.877Z,40.95
2023-01-19T18:17:18.641Z,36.13
2023-01-19T18:19:06.696Z,39.72
2023-01-19T18:22:46.227Z,32.47
2023-01-19T18:24:35.205Z,34.88
2023-01-19T18:26:26.281Z,35.33
2023-01-19T18:28:14.253Z,46.30
2023-01-19T18:30:02.254Z,54.28
2023-01-19T18:33:40.330Z,40.53
2023-01-19T18:35:33.882Z,49.13
2023-01-19T18:37:22.236Z,56.13
2023-01-19T18:39:10.533Z,45.25
2023-01-19T18:41:13.735Z,45.08
2023-01-19T18:43:01.675Z,43.20
2023-01-19T18:44:50.669Z,39.72
2023-01-19T18:46:41.016Z,38.05
2023-01-19T18:48:30.038Z,38.03
2023-01-19T18:50:23.233Z,36.95
2023-01-19T18:52:14.085Z,39.65
2023-01-19T18:54:02.100Z,43.88
2023-01-19T18:55:54.516Z,44.97
2023-01-19T18:57:43.722Z,41.50
2023-01-19T18:59:32.924Z,44.47
2023-01-19T19:01:23.669Z,47.50
2023-01-19T19:03:13.404Z,49.47
2023-01-19T19:05:02.091Z,47.85
2023-01-19T19:06:50.214Z,48.80
2023-01-19T19:08:38.244Z,48.20
2023-01-19T19:10:27.716Z,46.72
2023-01-19T19:12:17.045Z,40.88
2023-01-19T19:14:12.995Z,41.15
2023-01-19T19:16:09.336Z,44.13
2023-01-19T19:17:59.833Z,40.03
2023-01-19T19:19:49.118Z,39.55
2023-01-19T19:21:38.056Z,38.53
2023-01-19T19:23:26.629Z,36.92
2023-01-19T19:25:16.873Z,39.90
2023-01-19T19:27:05.943Z,44.28
2023-01-19T19:28:57.878Z,41.97
2023-01-19T19:30:46.627Z,42.55
2023-01-19T19:32:34.505Z,43.13
2023-01-19T19:34:24.746Z,45.05
2023-01-19T19:36:13.856Z,46.03
2023-01-19T19:38:03.005Z,44.90
2023-01-19T19:39:54.006Z,42.47
2023-01-19T19:41:45.306Z,46.25
2023-01-19T19:43:36.993Z,51.85
2023-01-19T19:45:25.421Z,41.47
2023-01-19T19:47:14.602Z,42.08
2023-01-19T19:49:06.635Z,42.55
2023-01-19T19:50:54.403Z,42.42
2023-01-19T19:54:30.198Z,41.75
2023-01-19T19:56:19.896Z,41.45
2023-01-19T19:58:07.545Z,44.80
2023-01-19T19:59:57.326Z,41.83
2023-01-19T20:01:49.677Z,40.10
2023-01-19T20:03:40.393Z,41.05
2023-01-19T20:05:28.526Z,38.13
2023-01-19T20:07:18.209Z,37.90
2023-01-19T20:09:09.353Z,37.13
2023-01-19T20:11:07.326Z,38.65
2023-01-19T20:13:00.451Z,39.25
2023-01-19T20:14:50.768Z,38.22
2023-01-19T20:16:40.649Z,45.20
2023-01-19T20:18:29.974Z,44.78
2023-01-19T20:20:19.433Z,40.92
2023-01-19T20:22:09.743Z,39.97
2023-01-19T20:24:08.415Z,38.45
2023-01-19T20:25:58.441Z,37.28
2023-01-19T20:27:46.851Z,36.72
2023-01-19T20:29:35.854Z,40.42
2023-01-19T20:31:31.846Z,42.97
2023-01-19T20:33:21.518Z,41.92
2023-01-19T20:35:12.932Z,42.30
2023-01-19T20:37:04.105Z,41.70
2023-01-19T20:38:54.462Z,39.70
2023-01-19T20:40:45.067Z,39.70
2023-01-19T20:42:35.380Z,38.17
2023-01-19T20:44:27.532Z,37.92
2023-01-19T20:46:19.913Z,38.47
2023-01-19T20:48:09.126Z,40.40
2023-01-19T20:49:58.546Z,46.67
2023-01-19T20:51:48.010Z,45.08
2023-01-19T20:53:38.030Z,41.92
2023-01-19T20:55:27.921Z,46.78
2023-01-19T20:57:16.699Z,44.70
2023-01-19T20:59:06.308Z,46.03
2023-01-19T21:01:00.395Z,42.13
2023-01-19T21:02:49.551Z,45.50
2023-01-19T21:04:38.625Z,43.13
2023-01-19T21:06:27.679Z,44.83
2023-01-19T21:08:18.648Z,43.47
2023-01-19T21:10:08.606Z,49.72
2023-01-19T21:11:59.133Z,47.88
2023-01-19T21:13:50.821Z,44.33
2023-01-19T21:15:39.729Z,46.75
2023-01-19T21:17:28.653Z,53.45
2023-01-19T21:19:22.881Z,53.50
2023-01-19T21:21:28.964Z,49.45
2023-01-19T21:23:25.142Z,51.25
2023-01-19T21:25:16.542Z,48.83
2023-01-19T21:27:05.920Z,48.88
2023-01-19T21:28:57.213Z,48.17
2023-01-19T21:30:46.850Z,44.92
2023-01-19T21:32:36.016Z,44.38
2023-01-19T21:34:24.172Z,47.38
2023-01-19T21:36:13.240Z,46.92
2023-01-19T21:38:01.221Z,45.58
2023-01-19T21:39:51.565Z,44.53
2023-01-19T21:41:43.061Z,47.67
2023-01-19T21:43:31.137Z,54.88
2023-01-19T21:45:19.452Z,49.10
2023-01-19T21:47:09.258Z,48.25
2023-01-19T21:49:05.738Z,43.33
2023-01-19T21:50:57.767Z,39.90
2023-01-19T21:52:45.605Z,38.05
2023-01-19T21:54:33.402Z,42.17
2023-01-19T21:56:21.471Z,40.40
2023-01-19T21:58:09.448Z,40.97
2023-01-19T22:01:46.692Z,41.05
2023-01-19T22:03:34.642Z,42.17
2023-01-19T22:05:22.922Z,40.28
2023-01-19T22:07:11.827Z,42.22
2023-01-19T22:09:01.172Z,41.72
2023-01-19T22:10:49.791Z,40.30
2023-01-19T22:12:40.597Z,41.15
2023-01-19T22:14:28.273Z,41.13
2023-01-19T22:16:19.743Z,40.45
2023-01-19T22:18:07.813Z,40.88
2023-01-19T22:19:56.132Z,36.13
2023-01-19T22:21:44.298Z,36.25
2023-01-19T22:23:32.624Z,36.63
2023-01-19T22:25:27.797Z,37.42
2023-01-19T22:27:16.540Z,39.78
2023-01-19T22:30:53.067Z,41.45
2023-01-19T22:32:40.904Z,36.22
2023-01-19T22:34:30.041Z,34.28
2023-01-19T22:36:26.161Z,35.20
2023-01-19T22:38:14.013Z,34.00
2023-01-19T22:41:52.576Z,35.67
2023-01-19T22:43:40.894Z,34.67
2023-01-19T22:45:29.160Z,32.40
2023-01-19T22:47:17.588Z,34.40
2023-01-19T22:49:08.201Z,33.92
2023-01-19T22:50:56.626Z,33.08
2023-01-19T22:52:44.797Z,34.80
2023-01-19T22:54:32.809Z,33.35
2023-01-19T22:56:29.999Z,35.67
2023-01-19T22:58:17.644Z,34.35
2023-01-19T23:00:08.734Z,33.35
2023-01-19T23:01:56.876Z,37.20
2023-01-19T23:05:36.333Z,33.22
2023-01-19T23:07:24.072Z,33.88
2023-01-19T23:09:14.536Z,33.85
2023-01-19T23:11:13.869Z,34.28
2023-01-19T23:13:01.534Z,35.15
2023-01-19T23:14:51.669Z,36.53
2023-01-19T23:16:39.694Z,33.58
2023-01-19T23:18:28.075Z,31.35
2023-01-19T23:22:03.650Z,34.15
2023-01-19T23:24:02.451Z,36.63
2023-01-19T23:25:50.183Z,33.10
2023-01-19T23:31:16.326Z,36.35
2023-01-19T23:33:03.918Z,29.95
2023-01-19T23:34:51.486Z,30.98
2023-01-19T23:38:27.732Z,29.80
2023-01-19T23:40:15.536Z,32.08
2023-01-19T23:42:05.168Z,29.85
2023-01-19T23:43:52.998Z,28.85
2023-01-19T23:47:28.852Z,30.98
2023-01-19T23:51:29.065Z,29.90
2023-01-19T23:53:16.726Z,35.20
2023-01-19T23:55:05.063Z,33.20
2023-01-19T23:56:53.247Z,35.72
2023-01-19T23:58:41.701Z,32.78
